sensor_id;sensor_type;location;lat;lon;timestamp;P1;durP1;ratioP1;P2;durP2;ratioP2
9160;SDS011;4615;51.340;8.288;2022-12-10T00:00:40;22.08;;;19.50;;
9160;SDS011;4615;51.340;8.288;2022-12-10T00:03:06;20.38;;;18.20;;
9160;SDS011;4615;51.340;8.288;2022-12-10T00:05:33;20.73;;;18.55;;
9160;SDS011;4615;51.340;8.288;2022-12-10T00:08:00;18.80;;;16.80;;
9160;SDS011;4615;51.340;8.288;2022-12-10T00:10:27;20.42;;;18.08;;
9160;SDS011;4615;51.340;8.288;2022-12-10T00:12:54;20.00;;;17.48;;
9160;SDS011;4615;51.340;8.288;2022-12-10T00:15:20;19.75;;;17.60;;
9160;SDS011;4615;51.340;8.288;2022-12-10T00:17:47;19.27;;;17.23;;
9160;SDS011;4615;51.340;8.288;2022-12-10T00:20:13;19.03;;;17.03;;
9160;SDS011;4615;51.340;8.288;2022-12-10T00:22:40;18.63;;;16.63;;
9160;SDS011;4615;51.340;8.288;2022-12-10T00:25:07;20.02;;;17.42;;
9160;SDS011;4615;51.340;8.288;2022-12-10T00:27:34;19.25;;;17.25;;
9160;SDS011;4615;51.340;8.288;2022-12-10T00:30:01;19.55;;;17.45;;
9160;SDS011;4615;51.340;8.288;2022-12-10T00:32:27;18.95;;;16.98;;
9160;SDS011;4615;51.340;8.288;2022-12-10T00:34:53;20.48;;;18.33;;
9160;SDS011;4615;51.340;8.288;2022-12-10T00:37:22;20.13;;;17.93;;
9160;SDS011;4615;51.340;8.288;2022-12-10T00:39:48;19.05;;;17.05;;
9160;SDS011;4615;51.340;8.288;2022-12-10T00:42:15;19.85;;;17.85;;
9160;SDS011;4615;51.340;8.288;2022-12-10T00:44:42;19.52;;;17.52;;
9160;SDS011;4615;51.340;8.288;2022-12-10T00:47:09;18.90;;;16.90;;
9160;SDS011;4615;51.340;8.288;2022-12-10T00:49:35;19.45;;;17.35;;
9160;SDS011;4615;51.340;8.288;2022-12-10T00:52:02;18.92;;;16.92;;
9160;SDS011;4615;51.340;8.288;2022-12-10T00:54:28;20.15;;;18.00;;
9160;SDS011;4615;51.340;8.288;2022-12-10T00:56:55;20.95;;;18.58;;
9160;SDS011;4615;51.340;8.288;2022-12-10T00:59:21;21.90;;;19.33;;
9160;SDS011;4615;51.340;8.288;2022-12-10T01:01:49;21.30;;;18.20;;
9160;SDS011;4615;51.340;8.288;2022-12-10T01:04:16;20.95;;;18.42;;
9160;SDS011;4615;51.340;8.288;2022-12-10T01:06:43;20.55;;;18.35;;
9160;SDS011;4615;51.340;8.288;2022-12-10T01:09:11;20.58;;;18.30;;
9160;SDS011;4615;51.340;8.288;2022-12-10T01:11:38;21.50;;;18.83;;
9160;SDS011;4615;51.340;8.288;2022-12-10T01:14:05;21.27;;;18.98;;
9160;SDS011;4615;51.340;8.288;2022-12-10T01:16:32;22.10;;;19.07;;
9160;SDS011;4615;51.340;8.288;2022-12-10T01:18:59;21.27;;;18.17;;
9160;SDS011;4615;51.340;8.288;2022-12-10T01:21:27;20.73;;;18.30;;
9160;SDS011;4615;51.340;8.288;2022-12-10T01:23:53;19.50;;;17.40;;
9160;SDS011;4615;51.340;8.288;2022-12-10T01:26:20;19.98;;;17.35;;
9160;SDS011;4615;51.340;8.288;2022-12-10T01:28:48;20.40;;;18.17;;
9160;SDS011;4615;51.340;8.288;2022-12-10T01:31:15;19.75;;;17.35;;
9160;SDS011;4615;51.340;8.288;2022-12-10T01:33:42;19.75;;;17.23;;
9160;SDS011;4615;51.340;8.288;2022-12-10T01:36:11;19.45;;;16.88;;
9160;SDS011;4615;51.340;8.288;2022-12-10T01:38:38;18.52;;;16.58;;
9160;SDS011;4615;51.340;8.288;2022-12-10T01:41:05;19.95;;;17.83;;
9160;SDS011;4615;51.340;8.288;2022-12-10T01:46:13;20.10;;;17.50;;
9160;SDS011;4615;51.340;8.288;2022-12-10T01:48:39;21.88;;;19.58;;
9160;SDS011;4615;51.340;8.288;2022-12-10T01:51:06;21.65;;;18.65;;
9160;SDS011;4615;51.340;8.288;2022-12-10T01:53:34;21.75;;;18.63;;
9160;SDS011;4615;51.340;8.288;2022-12-10T01:56:00;23.60;;;20.33;;
9160;SDS011;4615;51.340;8.288;2022-12-10T01:58:27;23.60;;;19.88;;
9160;SDS011;4615;51.340;8.288;2022-12-10T02:00:59;20.08;;;17.88;;
9160;SDS011;4615;51.340;8.288;2022-12-10T02:03:29;18.73;;;16.83;;
9160;SDS011;4615;51.340;8.288;2022-12-10T02:06:01;18.45;;;16.55;;
9160;SDS011;4615;51.340;8.288;2022-12-10T02:08:32;20.30;;;17.95;;
9160;SDS011;4615;51.340;8.288;2022-12-10T02:11:03;20.23;;;18.05;;
9160;SDS011;4615;51.340;8.288;2022-12-10T02:13:33;18.92;;;16.92;;
9160;SDS011;4615;51.340;8.288;2022-12-10T02:16:03;20.00;;;17.85;;
9160;SDS011;4615;51.340;8.288;2022-12-10T02:18:32;19.58;;;16.83;;
9160;SDS011;4615;51.340;8.288;2022-12-10T02:21:02;19.27;;;17.17;;
9160;SDS011;4615;51.340;8.288;2022-12-10T02:23:31;18.65;;;16.67;;
9160;SDS011;4615;51.340;8.288;2022-12-10T02:26:02;19.43;;;17.13;;
9160;SDS011;4615;51.340;8.288;2022-12-10T02:28:31;19.17;;;17.15;;
9160;SDS011;4615;51.340;8.288;2022-12-10T02:31:01;18.57;;;16.13;;
9160;SDS011;4615;51.340;8.288;2022-12-10T02:33:28;19.60;;;17.50;;
9160;SDS011;4615;51.340;8.288;2022-12-10T02:35:55;17.30;;;15.50;;
9160;SDS011;4615;51.340;8.288;2022-12-10T02:38:24;18.40;;;16.30;;
9160;SDS011;4615;51.340;8.288;2022-12-10T02:40:52;17.25;;;15.45;;
9160;SDS011;4615;51.340;8.288;2022-12-10T02:43:20;18.47;;;16.13;;
9160;SDS011;4615;51.340;8.288;2022-12-10T02:45:48;18.77;;;16.73;;
9160;SDS011;4615;51.340;8.288;2022-12-10T02:48:16;18.55;;;16.50;;
9160;SDS011;4615;51.340;8.288;2022-12-10T02:50:43;18.17;;;16.08;;
9160;SDS011;4615;51.340;8.288;2022-12-10T02:53:09;18.05;;;16.10;;
9160;SDS011;4615;51.340;8.288;2022-12-10T02:55:40;17.60;;;15.70;;
9160;SDS011;4615;51.340;8.288;2022-12-10T02:58:13;18.00;;;16.10;;
9160;SDS011;4615;51.340;8.288;2022-12-10T03:00:44;16.50;;;14.80;;
9160;SDS011;4615;51.340;8.288;2022-12-10T03:03:20;17.23;;;15.43;;
9160;SDS011;4615;51.340;8.288;2022-12-10T03:05:50;16.73;;;15.00;;
9160;SDS011;4615;51.340;8.288;2022-12-10T03:08:21;18.65;;;16.52;;
9160;SDS011;4615;51.340;8.288;2022-12-10T03:10:50;18.70;;;16.70;;
9160;SDS011;4615;51.340;8.288;2022-12-10T03:13:17;18.52;;;16.60;;
9160;SDS011;4615;51.340;8.288;2022-12-10T03:15:45;18.37;;;16.47;;
9160;SDS011;4615;51.340;8.288;2022-12-10T03:18:12;17.00;;;15.20;;
9160;SDS011;4615;51.340;8.288;2022-12-10T03:20:43;17.58;;;15.70;;
9160;SDS011;4615;51.340;8.288;2022-12-10T03:23:11;16.83;;;15.05;;
9160;SDS011;4615;51.340;8.288;2022-12-10T03:25:39;17.25;;;15.05;;
9160;SDS011;4615;51.340;8.288;2022-12-10T03:28:06;16.98;;;15.18;;
9160;SDS011;4615;51.340;8.288;2022-12-10T03:30:33;18.70;;;15.90;;
9160;SDS011;4615;51.340;8.288;2022-12-10T03:33:00;17.95;;;15.65;;
9160;SDS011;4615;51.340;8.288;2022-12-10T03:35:26;17.13;;;15.32;;
9160;SDS011;4615;51.340;8.288;2022-12-10T03:37:54;17.83;;;15.93;;
9160;SDS011;4615;51.340;8.288;2022-12-10T03:40:21;17.33;;;15.45;;
9160;SDS011;4615;51.340;8.288;2022-12-10T03:42:49;18.25;;;16.10;;
9160;SDS011;4615;51.340;8.288;2022-12-10T03:45:15;17.58;;;15.60;;
9160;SDS011;4615;51.340;8.288;2022-12-10T03:47:42;17.83;;;15.93;;
9160;SDS011;4615;51.340;8.288;2022-12-10T03:50:09;17.50;;;15.60;;
9160;SDS011;4615;51.340;8.288;2022-12-10T03:52:36;17.77;;;15.88;;
9160;SDS011;4615;51.340;8.288;2022-12-10T03:55:05;18.67;;;16.02;;
9160;SDS011;4615;51.340;8.288;2022-12-10T03:57:32;19.10;;;16.33;;
9160;SDS011;4615;51.340;8.288;2022-12-10T03:59:58;18.13;;;16.02;;
9160;SDS011;4615;51.340;8.288;2022-12-10T04:02:25;18.25;;;16.35;;
9160;SDS011;4615;51.340;8.288;2022-12-10T04:04:51;17.25;;;15.30;;
9160;SDS011;4615;51.340;8.288;2022-12-10T04:07:17;16.55;;;14.85;;
9160;SDS011;4615;51.340;8.288;2022-12-10T04:09:44;16.55;;;14.77;;
9160;SDS011;4615;51.340;8.288;2022-12-10T04:12:12;16.67;;;14.73;;
9160;SDS011;4615;51.340;8.288;2022-12-10T04:14:38;16.98;;;15.18;;
9160;SDS011;4615;51.340;8.288;2022-12-10T04:17:22;16.70;;;14.13;;
9160;SDS011;4615;51.340;8.288;2022-12-10T04:19:48;17.33;;;14.98;;
9160;SDS011;4615;51.340;8.288;2022-12-10T04:22:15;16.00;;;14.30;;
9160;SDS011;4615;51.340;8.288;2022-12-10T04:24:58;17.17;;;15.27;;
9160;SDS011;4615;51.340;8.288;2022-12-10T04:27:49;17.50;;;15.60;;
9160;SDS011;4615;51.340;8.288;2022-12-10T04:30:15;18.30;;;16.30;;
9160;SDS011;4615;51.340;8.288;2022-12-10T04:32:42;16.70;;;15.00;;
9160;SDS011;4615;51.340;8.288;2022-12-10T04:35:08;16.37;;;14.20;;
9160;SDS011;4615;51.340;8.288;2022-12-10T04:37:35;15.67;;;14.03;;
9160;SDS011;4615;51.340;8.288;2022-12-10T04:40:02;16.95;;;15.15;;
9160;SDS011;4615;51.340;8.288;2022-12-10T04:42:28;15.48;;;13.98;;
9160;SDS011;4615;51.340;8.288;2022-12-10T04:44:56;16.05;;;14.35;;
9160;SDS011;4615;51.340;8.288;2022-12-10T04:47:22;15.70;;;14.10;;
9160;SDS011;4615;51.340;8.288;2022-12-10T04:49:49;16.20;;;14.50;;
9160;SDS011;4615;51.340;8.288;2022-12-10T04:52:15;17.17;;;15.38;;
9160;SDS011;4615;51.340;8.288;2022-12-10T04:54:42;16.73;;;14.97;;
9160;SDS011;4615;51.340;8.288;2022-12-10T04:57:09;17.40;;;15.38;;
9160;SDS011;4615;51.340;8.288;2022-12-10T04:59:36;17.25;;;15.30;;
9160;SDS011;4615;51.340;8.288;2022-12-10T05:02:04;17.42;;;15.40;;
9160;SDS011;4615;51.340;8.288;2022-12-10T05:04:30;17.77;;;15.85;;
9160;SDS011;4615;51.340;8.288;2022-12-10T05:06:56;18.30;;;16.08;;
9160;SDS011;4615;51.340;8.288;2022-12-10T05:09:23;17.42;;;15.00;;
9160;SDS011;4615;51.340;8.288;2022-12-10T05:11:49;16.73;;;14.93;;
9160;SDS011;4615;51.340;8.288;2022-12-10T05:14:16;17.13;;;15.23;;
9160;SDS011;4615;51.340;8.288;2022-12-10T05:16:42;16.75;;;14.98;;
9160;SDS011;4615;51.340;8.288;2022-12-10T05:19:10;18.45;;;16.02;;
9160;SDS011;4615;51.340;8.288;2022-12-10T05:21:37;17.70;;;15.80;;
9160;SDS011;4615;51.340;8.288;2022-12-10T05:24:20;17.55;;;15.65;;
9160;SDS011;4615;51.340;8.288;2022-12-10T05:26:47;18.33;;;16.10;;
9160;SDS011;4615;51.340;8.288;2022-12-10T05:29:16;16.55;;;14.85;;
9160;SDS011;4615;51.340;8.288;2022-12-10T05:31:42;16.77;;;14.75;;
9160;SDS011;4615;51.340;8.288;2022-12-10T05:34:10;17.73;;;15.43;;
9160;SDS011;4615;51.340;8.288;2022-12-10T05:36:37;17.48;;;15.55;;
9160;SDS011;4615;51.340;8.288;2022-12-10T05:39:03;18.63;;;16.63;;
9160;SDS011;4615;51.340;8.288;2022-12-10T05:41:30;17.55;;;15.65;;
9160;SDS011;4615;51.340;8.288;2022-12-10T05:43:57;18.35;;;16.45;;
9160;SDS011;4615;51.340;8.288;2022-12-10T05:46:25;17.42;;;15.45;;
9160;SDS011;4615;51.340;8.288;2022-12-10T05:48:51;17.50;;;15.63;;
9160;SDS011;4615;51.340;8.288;2022-12-10T05:51:20;17.42;;;15.52;;
9160;SDS011;4615;51.340;8.288;2022-12-10T05:53:47;17.17;;;15.38;;
9160;SDS011;4615;51.340;8.288;2022-12-10T05:56:14;17.90;;;16.00;;
9160;SDS011;4615;51.340;8.288;2022-12-10T05:58:42;18.67;;;16.67;;
9160;SDS011;4615;51.340;8.288;2022-12-10T06:01:09;17.95;;;15.85;;
9160;SDS011;4615;51.340;8.288;2022-12-10T06:03:36;17.83;;;15.95;;
9160;SDS011;4615;51.340;8.288;2022-12-10T06:06:03;18.90;;;16.90;;
9160;SDS011;4615;51.340;8.288;2022-12-10T06:08:31;17.50;;;15.70;;
9160;SDS011;4615;51.340;8.288;2022-12-10T06:11:00;17.55;;;15.70;;
9160;SDS011;4615;51.340;8.288;2022-12-10T06:13:26;18.10;;;16.20;;
9160;SDS011;4615;51.340;8.288;2022-12-10T06:15:53;18.73;;;16.75;;
9160;SDS011;4615;51.340;8.288;2022-12-10T06:18:19;18.95;;;16.95;;
9160;SDS011;4615;51.340;8.288;2022-12-10T06:20:46;18.55;;;16.55;;
9160;SDS011;4615;51.340;8.288;2022-12-10T06:23:12;18.55;;;16.55;;
9160;SDS011;4615;51.340;8.288;2022-12-10T06:25:40;17.70;;;15.80;;
9160;SDS011;4615;51.340;8.288;2022-12-10T06:28:07;17.95;;;15.30;;
9160;SDS011;4615;51.340;8.288;2022-12-10T06:30:34;18.08;;;16.13;;
9160;SDS011;4615;51.340;8.288;2022-12-10T06:33:00;17.33;;;15.50;;
9160;SDS011;4615;51.340;8.288;2022-12-10T06:35:27;17.38;;;15.57;;
9160;SDS011;4615;51.340;8.288;2022-12-10T06:37:53;17.52;;;15.68;;
9160;SDS011;4615;51.340;8.288;2022-12-10T06:40:19;17.63;;;15.60;;
9160;SDS011;4615;51.340;8.288;2022-12-10T06:42:47;18.57;;;16.30;;
9160;SDS011;4615;51.340;8.288;2022-12-10T06:45:16;18.15;;;16.25;;
9160;SDS011;4615;51.340;8.288;2022-12-10T06:47:42;18.63;;;16.55;;
9160;SDS011;4615;51.340;8.288;2022-12-10T06:50:09;19.33;;;16.80;;
9160;SDS011;4615;51.340;8.288;2022-12-10T06:52:35;19.38;;;17.05;;
9160;SDS011;4615;51.340;8.288;2022-12-10T06:55:02;18.77;;;16.47;;
9160;SDS011;4615;51.340;8.288;2022-12-10T06:57:28;18.47;;;16.50;;
9160;SDS011;4615;51.340;8.288;2022-12-10T06:59:56;19.25;;;17.05;;
9160;SDS011;4615;51.340;8.288;2022-12-10T07:02:22;18.95;;;16.17;;
9160;SDS011;4615;51.340;8.288;2022-12-10T07:04:49;19.93;;;17.60;;
9160;SDS011;4615;51.340;8.288;2022-12-10T07:07:15;18.58;;;16.55;;
9160;SDS011;4615;51.340;8.288;2022-12-10T07:09:41;18.92;;;16.92;;
9160;SDS011;4615;51.340;8.288;2022-12-10T07:12:08;19.20;;;17.13;;
9160;SDS011;4615;51.340;8.288;2022-12-10T07:14:34;20.00;;;17.27;;
9160;SDS011;4615;51.340;8.288;2022-12-10T07:17:02;20.00;;;17.17;;
9160;SDS011;4615;51.340;8.288;2022-12-10T07:19:30;19.42;;;17.05;;
9160;SDS011;4615;51.340;8.288;2022-12-10T07:21:56;18.40;;;16.40;;
9160;SDS011;4615;51.340;8.288;2022-12-10T07:24:23;19.05;;;17.05;;
9160;SDS011;4615;51.340;8.288;2022-12-10T07:26:49;17.15;;;15.35;;
9160;SDS011;4615;51.340;8.288;2022-12-10T07:29:18;17.92;;;16.02;;
9160;SDS011;4615;51.340;8.288;2022-12-10T07:31:45;22.40;;;19.95;;
9160;SDS011;4615;51.340;8.288;2022-12-10T07:34:14;26.15;;;23.45;;
9160;SDS011;4615;51.340;8.288;2022-12-10T07:36:41;30.55;;;27.50;;
9160;SDS011;4615;51.340;8.288;2022-12-10T07:39:08;23.25;;;20.85;;
9160;SDS011;4615;51.340;8.288;2022-12-10T07:41:35;20.75;;;17.75;;
9160;SDS011;4615;51.340;8.288;2022-12-10T07:44:02;20.67;;;18.10;;
9160;SDS011;4615;51.340;8.288;2022-12-10T07:46:31;19.30;;;17.13;;
9160;SDS011;4615;51.340;8.288;2022-12-10T07:48:59;20.30;;;18.15;;
9160;SDS011;4615;51.340;8.288;2022-12-10T07:51:27;18.67;;;16.70;;
9160;SDS011;4615;51.340;8.288;2022-12-10T07:53:54;19.90;;;17.42;;
9160;SDS011;4615;51.340;8.288;2022-12-10T07:56:20;20.02;;;17.92;;
9160;SDS011;4615;51.340;8.288;2022-12-10T07:58:48;18.17;;;16.27;;
9160;SDS011;4615;51.340;8.288;2022-12-10T08:01:15;18.48;;;16.42;;
9160;SDS011;4615;51.340;8.288;2022-12-10T08:03:41;18.95;;;16.15;;
9160;SDS011;4615;51.340;8.288;2022-12-10T08:06:09;17.70;;;15.87;;
9160;SDS011;4615;51.340;8.288;2022-12-10T08:08:38;18.92;;;16.92;;
9160;SDS011;4615;51.340;8.288;2022-12-10T08:11:05;19.23;;;17.27;;
9160;SDS011;4615;51.340;8.288;2022-12-10T08:13:32;19.20;;;17.20;;
9160;SDS011;4615;51.340;8.288;2022-12-10T08:16:00;18.67;;;16.77;;
9160;SDS011;4615;51.340;8.288;2022-12-10T08:18:26;20.70;;;18.58;;
9160;SDS011;4615;51.340;8.288;2022-12-10T08:20:53;19.38;;;17.27;;
9160;SDS011;4615;51.340;8.288;2022-12-10T08:23:20;19.30;;;17.27;;
9160;SDS011;4615;51.340;8.288;2022-12-10T08:25:47;18.05;;;16.15;;
9160;SDS011;4615;51.340;8.288;2022-12-10T08:28:14;18.40;;;16.50;;
9160;SDS011;4615;51.340;8.288;2022-12-10T08:30:44;19.27;;;17.27;;
9160;SDS011;4615;51.340;8.288;2022-12-10T08:33:11;18.75;;;16.75;;
9160;SDS011;4615;51.340;8.288;2022-12-10T08:35:37;19.10;;;17.08;;
9160;SDS011;4615;51.340;8.288;2022-12-10T08:38:04;20.92;;;18.58;;
9160;SDS011;4615;51.340;8.288;2022-12-10T08:40:30;19.13;;;17.03;;
9160;SDS011;4615;51.340;8.288;2022-12-10T08:42:58;18.48;;;16.48;;
9160;SDS011;4615;51.340;8.288;2022-12-10T08:45:24;17.83;;;15.93;;
9160;SDS011;4615;51.340;8.288;2022-12-10T08:47:51;18.08;;;16.17;;
9160;SDS011;4615;51.340;8.288;2022-12-10T08:50:17;18.58;;;16.48;;
9160;SDS011;4615;51.340;8.288;2022-12-10T08:52:44;18.23;;;16.30;;
9160;SDS011;4615;51.340;8.288;2022-12-10T08:55:10;18.42;;;16.52;;
9160;SDS011;4615;51.340;8.288;2022-12-10T08:57:37;17.83;;;15.95;;
9160;SDS011;4615;51.340;8.288;2022-12-10T09:00:05;19.17;;;17.02;;
9160;SDS011;4615;51.340;8.288;2022-12-10T09:02:32;19.83;;;17.30;;
9160;SDS011;4615;51.340;8.288;2022-12-10T09:04:58;20.55;;;18.35;;
9160;SDS011;4615;51.340;8.288;2022-12-10T09:07:26;20.67;;;18.48;;
9160;SDS011;4615;51.340;8.288;2022-12-10T09:09:52;22.27;;;19.52;;
9160;SDS011;4615;51.340;8.288;2022-12-10T09:12:19;20.85;;;18.20;;
9160;SDS011;4615;51.340;8.288;2022-12-10T09:14:45;18.15;;;16.25;;
9160;SDS011;4615;51.340;8.288;2022-12-10T09:17:13;18.30;;;16.40;;
9160;SDS011;4615;51.340;8.288;2022-12-10T09:19:39;17.40;;;15.63;;
9160;SDS011;4615;51.340;8.288;2022-12-10T09:22:06;18.63;;;16.67;;
9160;SDS011;4615;51.340;8.288;2022-12-10T09:24:33;19.55;;;17.50;;
9160;SDS011;4615;51.340;8.288;2022-12-10T09:27:00;20.05;;;17.95;;
9160;SDS011;4615;51.340;8.288;2022-12-10T09:29:26;19.13;;;17.08;;
9160;SDS011;4615;51.340;8.288;2022-12-10T09:31:53;18.20;;;16.30;;
9160;SDS011;4615;51.340;8.288;2022-12-10T09:34:21;18.92;;;16.48;;
9160;SDS011;4615;51.340;8.288;2022-12-10T09:36:47;19.13;;;17.13;;
9160;SDS011;4615;51.340;8.288;2022-12-10T09:39:14;20.08;;;17.98;;
9160;SDS011;4615;51.340;8.288;2022-12-10T09:41:45;19.65;;;17.60;;
9160;SDS011;4615;51.340;8.288;2022-12-10T09:44:18;19.27;;;17.27;;
9160;SDS011;4615;51.340;8.288;2022-12-10T09:46:47;20.15;;;17.95;;
9160;SDS011;4615;51.340;8.288;2022-12-10T09:49:17;21.13;;;18.80;;
9160;SDS011;4615;51.340;8.288;2022-12-10T09:51:49;20.02;;;17.92;;
9160;SDS011;4615;51.340;8.288;2022-12-10T09:54:18;19.98;;;17.88;;
9160;SDS011;4615;51.340;8.288;2022-12-10T09:56:45;19.67;;;17.58;;
9160;SDS011;4615;51.340;8.288;2022-12-10T09:59:13;19.45;;;17.33;;
9160;SDS011;4615;51.340;8.288;2022-12-10T10:01:41;18.77;;;16.80;;
9160;SDS011;4615;51.340;8.288;2022-12-10T10:04:09;18.42;;;16.52;;
9160;SDS011;4615;51.340;8.288;2022-12-10T10:06:35;15.90;;;14.20;;
9160;SDS011;4615;51.340;8.288;2022-12-10T10:09:04;9.35;;;8.45;;
9160;SDS011;4615;51.340;8.288;2022-12-10T10:11:31;9.77;;;8.77;;
9160;SDS011;4615;51.340;8.288;2022-12-10T10:13:58;9.73;;;8.82;;
9160;SDS011;4615;51.340;8.288;2022-12-10T10:16:26;10.05;;;9.05;;
9160;SDS011;4615;51.340;8.288;2022-12-10T10:18:55;10.75;;;9.70;;
9160;SDS011;4615;51.340;8.288;2022-12-10T10:21:23;11.07;;;10.00;;
9160;SDS011;4615;51.340;8.288;2022-12-10T10:23:50;10.48;;;9.48;;
9160;SDS011;4615;51.340;8.288;2022-12-10T10:26:18;9.60;;;8.70;;
9160;SDS011;4615;51.340;8.288;2022-12-10T10:28:44;9.67;;;8.77;;
9160;SDS011;4615;51.340;8.288;2022-12-10T10:31:15;10.15;;;9.23;;
9160;SDS011;4615;51.340;8.288;2022-12-10T10:33:47;10.50;;;9.45;;
9160;SDS011;4615;51.340;8.288;2022-12-10T10:36:14;11.38;;;10.27;;
9160;SDS011;4615;51.340;8.288;2022-12-10T10:38:43;11.48;;;10.38;;
9160;SDS011;4615;51.340;8.288;2022-12-10T10:41:13;10.93;;;9.82;;
9160;SDS011;4615;51.340;8.288;2022-12-10T10:43:42;9.82;;;8.82;;
9160;SDS011;4615;51.340;8.288;2022-12-10T10:46:11;10.65;;;9.55;;
9160;SDS011;4615;51.340;8.288;2022-12-10T10:48:39;10.85;;;9.75;;
9160;SDS011;4615;51.340;8.288;2022-12-10T10:51:06;10.85;;;9.85;;
9160;SDS011;4615;51.340;8.288;2022-12-10T10:53:39;11.73;;;10.63;;
9160;SDS011;4615;51.340;8.288;2022-12-10T10:56:07;11.43;;;10.43;;
9160;SDS011;4615;51.340;8.288;2022-12-10T10:58:38;10.52;;;9.52;;
9160;SDS011;4615;51.340;8.288;2022-12-10T11:01:13;10.63;;;9.63;;
9160;SDS011;4615;51.340;8.288;2022-12-10T11:03:46;10.80;;;9.70;;
9160;SDS011;4615;51.340;8.288;2022-12-10T11:06:12;11.68;;;10.57;;
9160;SDS011;4615;51.340;8.288;2022-12-10T11:08:39;11.23;;;10.13;;
9160;SDS011;4615;51.340;8.288;2022-12-10T11:11:11;11.68;;;10.57;;
9160;SDS011;4615;51.340;8.288;2022-12-10T11:13:38;11.70;;;10.60;;
9160;SDS011;4615;51.340;8.288;2022-12-10T11:16:09;13.73;;;12.43;;
9160;SDS011;4615;51.340;8.288;2022-12-10T11:18:39;12.18;;;11.05;;
9160;SDS011;4615;51.340;8.288;2022-12-10T11:21:10;13.10;;;11.80;;
9160;SDS011;4615;51.340;8.288;2022-12-10T11:23:43;12.87;;;11.57;;
9160;SDS011;4615;51.340;8.288;2022-12-10T11:26:17;11.30;;;10.23;;
9160;SDS011;4615;51.340;8.288;2022-12-10T11:28:48;12.20;;;11.05;;
9160;SDS011;4615;51.340;8.288;2022-12-10T11:31:26;12.50;;;11.30;;
9160;SDS011;4615;51.340;8.288;2022-12-10T11:33:58;12.32;;;11.23;;
9160;SDS011;4615;51.340;8.288;2022-12-10T11:36:28;13.40;;;12.10;;
9160;SDS011;4615;51.340;8.288;2022-12-10T11:39:02;13.85;;;12.45;;
9160;SDS011;4615;51.340;8.288;2022-12-10T11:41:33;13.10;;;11.80;;
9160;SDS011;4615;51.340;8.288;2022-12-10T11:44:06;11.20;;;10.10;;
9160;SDS011;4615;51.340;8.288;2022-12-10T11:46:40;11.30;;;10.20;;
9160;SDS011;4615;51.340;8.288;2022-12-10T11:49:16;11.45;;;10.35;;
9160;SDS011;4615;51.340;8.288;2022-12-10T11:51:46;15.02;;;13.52;;
9160;SDS011;4615;51.340;8.288;2022-12-10T11:54:22;13.43;;;12.13;;
9160;SDS011;4615;51.340;8.288;2022-12-10T11:56:52;13.02;;;11.63;;
9160;SDS011;4615;51.340;8.288;2022-12-10T11:59:23;11.50;;;10.40;;
9160;SDS011;4615;51.340;8.288;2022-12-10T12:01:59;12.57;;;11.38;;
9160;SDS011;4615;51.340;8.288;2022-12-10T12:04:40;11.50;;;10.40;;
9160;SDS011;4615;51.340;8.288;2022-12-10T12:07:14;11.57;;;10.48;;
9160;SDS011;4615;51.340;8.288;2022-12-10T12:09:48;12.47;;;11.27;;
9160;SDS011;4615;51.340;8.288;2022-12-10T12:12:21;11.88;;;10.77;;
9160;SDS011;4615;51.340;8.288;2022-12-10T12:14:51;11.60;;;10.50;;
9160;SDS011;4615;51.340;8.288;2022-12-10T12:17:20;12.45;;;11.25;;
9160;SDS011;4615;51.340;8.288;2022-12-10T12:19:50;12.70;;;11.50;;
9160;SDS011;4615;51.340;8.288;2022-12-10T12:22:21;13.32;;;12.02;;
9160;SDS011;4615;51.340;8.288;2022-12-10T12:24:49;14.40;;;13.00;;
9160;SDS011;4615;51.340;8.288;2022-12-10T12:27:22;13.48;;;12.18;;
9160;SDS011;4615;51.340;8.288;2022-12-10T12:29:51;12.57;;;11.38;;
9160;SDS011;4615;51.340;8.288;2022-12-10T12:32:22;13.75;;;12.45;;
9160;SDS011;4615;51.340;8.288;2022-12-10T12:34:53;14.25;;;12.75;;
9160;SDS011;4615;51.340;8.288;2022-12-10T12:37:23;13.52;;;12.23;;
9160;SDS011;4615;51.340;8.288;2022-12-10T12:39:54;14.25;;;12.85;;
9160;SDS011;4615;51.340;8.288;2022-12-10T12:42:24;13.98;;;12.68;;
9160;SDS011;4615;51.340;8.288;2022-12-10T12:44:56;14.32;;;13.02;;
9160;SDS011;4615;51.340;8.288;2022-12-10T12:47:26;14.45;;;13.15;;
9160;SDS011;4615;51.340;8.288;2022-12-10T12:49:57;15.13;;;13.68;;
9160;SDS011;4615;51.340;8.288;2022-12-10T12:52:27;16.45;;;14.95;;
9160;SDS011;4615;51.340;8.288;2022-12-10T12:54:57;17.38;;;15.68;;
9160;SDS011;4615;51.340;8.288;2022-12-10T12:57:28;16.20;;;14.60;;
9160;SDS011;4615;51.340;8.288;2022-12-10T12:59:57;17.88;;;16.17;;
9160;SDS011;4615;51.340;8.288;2022-12-10T13:02:36;16.27;;;14.70;;
9160;SDS011;4615;51.340;8.288;2022-12-10T13:05:08;15.45;;;14.05;;
9160;SDS011;4615;51.340;8.288;2022-12-10T13:07:38;14.82;;;13.43;;
9160;SDS011;4615;51.340;8.288;2022-12-10T13:10:09;15.45;;;14.05;;
9160;SDS011;4615;51.340;8.288;2022-12-10T13:12:45;15.07;;;13.68;;
9160;SDS011;4615;51.340;8.288;2022-12-10T13:15:14;15.48;;;14.07;;
9160;SDS011;4615;51.340;8.288;2022-12-10T13:20:32;15.57;;;14.07;;
9160;SDS011;4615;51.340;8.288;2022-12-10T13:22:59;14.60;;;13.20;;
9160;SDS011;4615;51.340;8.288;2022-12-10T13:25:54;15.48;;;14.00;;
9160;SDS011;4615;51.340;8.288;2022-12-10T13:28:22;15.88;;;14.40;;
9160;SDS011;4615;51.340;8.288;2022-12-10T13:31:08;15.05;;;13.65;;
9160;SDS011;4615;51.340;8.288;2022-12-10T13:33:46;14.32;;;13.02;;
9160;SDS011;4615;51.340;8.288;2022-12-10T13:36:14;14.93;;;13.57;;
9160;SDS011;4615;51.340;8.288;2022-12-10T13:38:54;15.43;;;14.02;;
9160;SDS011;4615;51.340;8.288;2022-12-10T13:41:21;15.27;;;13.88;;
9160;SDS011;4615;51.340;8.288;2022-12-10T13:44:11;16.02;;;14.45;;
9160;SDS011;4615;51.340;8.288;2022-12-10T13:46:51;15.93;;;14.43;;
9160;SDS011;4615;51.340;8.288;2022-12-10T13:49:19;16.30;;;14.80;;
9160;SDS011;4615;51.340;8.288;2022-12-10T13:51:50;17.40;;;15.80;;
9160;SDS011;4615;51.340;8.288;2022-12-10T13:54:29;16.42;;;14.93;;
9160;SDS011;4615;51.340;8.288;2022-12-10T13:56:59;14.52;;;13.23;;
9160;SDS011;4615;51.340;8.288;2022-12-10T13:59:32;16.75;;;15.15;;
9160;SDS011;4615;51.340;8.288;2022-12-10T14:02:09;15.30;;;13.90;;
9160;SDS011;4615;51.340;8.288;2022-12-10T14:04:51;15.88;;;14.38;;
9160;SDS011;4615;51.340;8.288;2022-12-10T14:07:23;15.63;;;14.13;;
9160;SDS011;4615;51.340;8.288;2022-12-10T14:09:51;15.23;;;13.82;;
9160;SDS011;4615;51.340;8.288;2022-12-10T14:12:19;14.50;;;13.20;;
9160;SDS011;4615;51.340;8.288;2022-12-10T14:14:50;14.93;;;13.53;;
9160;SDS011;4615;51.340;8.288;2022-12-10T14:17:20;16.20;;;14.60;;
9160;SDS011;4615;51.340;8.288;2022-12-10T14:19:47;17.23;;;15.57;;
9160;SDS011;4615;51.340;8.288;2022-12-10T14:22:15;15.60;;;14.13;;
9160;SDS011;4615;51.340;8.288;2022-12-10T14:24:44;14.90;;;13.50;;
9160;SDS011;4615;51.340;8.288;2022-12-10T14:27:12;17.02;;;15.35;;
9160;SDS011;4615;51.340;8.288;2022-12-10T14:29:42;19.80;;;17.70;;
9160;SDS011;4615;51.340;8.288;2022-12-10T14:32:10;16.35;;;14.85;;
9160;SDS011;4615;51.340;8.288;2022-12-10T14:34:38;15.75;;;14.25;;
9160;SDS011;4615;51.340;8.288;2022-12-10T14:37:05;15.80;;;14.30;;
9160;SDS011;4615;51.340;8.288;2022-12-10T14:39:31;15.25;;;13.70;;
9160;SDS011;4615;51.340;8.288;2022-12-10T14:42:00;14.63;;;13.23;;
9160;SDS011;4615;51.340;8.288;2022-12-10T14:44:27;13.15;;;11.95;;
9160;SDS011;4615;51.340;8.288;2022-12-10T14:47:02;13.73;;;12.45;;
9160;SDS011;4615;51.340;8.288;2022-12-10T14:49:28;13.60;;;12.40;;
9160;SDS011;4615;51.340;8.288;2022-12-10T14:51:55;13.15;;;11.95;;
9160;SDS011;4615;51.340;8.288;2022-12-10T14:54:23;14.48;;;13.18;;
9160;SDS011;4615;51.340;8.288;2022-12-10T14:56:50;16.13;;;14.63;;
9160;SDS011;4615;51.340;8.288;2022-12-10T14:59:19;17.33;;;15.73;;
9160;SDS011;4615;51.340;8.288;2022-12-10T15:01:47;16.30;;;14.70;;